createdAt,value
2018-09-01T00:00:14.722Z,22.95
2018-09-01T00:02:41.508Z,22.94
2018-09-01T00:05:08.212Z,22.94
2018-09-01T00:07:35.919Z,22.97
2018-09-01T00:10:03.432Z,22.94
2018-09-01T00:12:31.333Z,22.92
2018-09-01T00:14:58.972Z,22.92
2018-09-01T00:17:29.245Z,22.93
2018-09-01T00:19:58.139Z,22.89
2018-09-01T00:22:26.724Z,22.87
2018-09-01T00:24:53.492Z,22.87
2018-09-01T00:27:21.508Z,22.89
2018-09-01T00:29:48.526Z,22.91
2018-09-01T00:32:16.220Z,22.92
2018-09-01T00:34:44.812Z,22.90
2018-09-01T00:37:13.472Z,22.92
2018-09-01T00:39:45.155Z,22.88
2018-09-01T00:42:13.926Z,22.89
2018-09-01T00:44:40.713Z,22.90
2018-09-01T00:47:08.599Z,22.91
2018-09-01T00:49:36.112Z,22.94
2018-09-01T00:52:03.652Z,22.91
2018-09-01T00:54:31.133Z,22.89
2018-09-01T00:56:57.797Z,22.91
2018-09-01T00:59:26.697Z,22.90
2018-09-01T01:01:55.452Z,22.92
2018-09-01T01:04:23.121Z,22.92
2018-09-01T01:06:50.729Z,22.92
2018-09-01T01:09:17.403Z,22.91
2018-09-01T01:11:46.116Z,22.89
2018-09-01T01:14:14.025Z,22.89
2018-09-01T01:16:40.733Z,22.93
2018-09-01T01:19:07.376Z,22.96
2018-09-01T01:21:34.184Z,22.92
2018-09-01T01:24:01.885Z,22.90
2018-09-01T01:26:28.552Z,22.93
2018-09-01T01:28:55.879Z,22.89
2018-09-01T01:31:22.508Z,22.90
2018-09-01T01:33:49.164Z,22.90
2018-09-01T01:36:15.829Z,22.92
2018-09-01T01:38:43.473Z,22.89
2018-09-01T01:41:11.087Z,22.91
2018-09-01T01:43:37.732Z,22.84
2018-09-01T01:46:04.437Z,22.88
2018-09-01T01:48:31.958Z,22.90
2018-09-01T01:50:59.705Z,22.87
2018-09-01T01:53:26.368Z,22.89
2018-09-01T01:55:53.033Z,22.85
2018-09-01T01:58:20.541Z,22.89
2018-09-01T02:00:48.145Z,22.83
2018-09-01T02:03:15.781Z,22.84
2018-09-01T02:05:43.508Z,22.84
2018-09-01T02:08:11.147Z,22.82
2018-09-01T02:10:38.848Z,22.81
2018-09-01T02:13:06.492Z,22.81
2018-09-01T02:15:33.194Z,22.80
2018-09-01T02:18:00.689Z,22.79
2018-09-01T02:20:28.125Z,22.83
2018-09-01T02:22:55.559Z,22.79
2018-09-01T02:25:23.195Z,22.81
2018-09-01T02:27:50.821Z,22.77
2018-09-01T02:30:18.482Z,22.80
2018-09-01T02:32:46.141Z,22.80
2018-09-01T02:35:14.734Z,22.81
2018-09-01T02:37:42.360Z,22.79
2018-09-01T02:40:09.914Z,22.82
2018-09-01T02:42:37.585Z,22.83
2018-09-01T02:45:05.624Z,22.81
2018-09-01T02:47:33.099Z,22.81
2018-09-01T02:49:59.781Z,22.79
2018-09-01T02:52:27.445Z,22.80
2018-09-01T02:54:56.079Z,22.80
2018-09-01T02:57:22.784Z,22.79
2018-09-01T02:59:50.405Z,22.80
2018-09-01T03:02:22.644Z,22.79
2018-09-01T03:04:50.212Z,22.74
2018-09-01T03:07:17.682Z,22.76
2018-09-01T03:09:45.346Z,22.76
2018-09-01T03:12:13.937Z,22.75
2018-09-01T03:14:41.562Z,22.74
2018-09-01T03:17:09.546Z,22.76
2018-09-01T03:19:36.240Z,22.76
2018-09-01T03:22:03.859Z,22.75
2018-09-01T03:24:31.356Z,22.76
2018-09-01T03:26:58.978Z,22.74
2018-09-01T03:29:25.634Z,22.75
2018-09-01T03:31:53.125Z,22.77
2018-09-01T03:34:19.780Z,22.77
2018-09-01T03:36:47.247Z,22.77
2018-09-01T03:39:15.008Z,22.77
2018-09-01T03:41:41.668Z,22.78
2018-09-01T03:44:08.420Z,22.75
2018-09-01T03:46:35.103Z,22.76
2018-09-01T03:49:04.460Z,22.77
2018-09-01T03:51:32.010Z,22.76
2018-09-01T03:53:59.647Z,22.72
2018-09-01T03:56:27.213Z,22.70
2018-09-01T03:58:56.106Z,22.70
2018-09-01T04:01:23.623Z,22.68
2018-09-01T04:03:50.280Z,22.66
2018-09-01T04:06:18.085Z,22.69
2018-09-01T04:08:44.867Z,22.71
2018-09-01T04:11:11.523Z,22.77
2018-09-01T04:13:38.188Z,22.74
2018-09-01T04:16:05.673Z,22.73
2018-09-01T04:18:32.332Z,22.74
2018-09-01T04:20:59.002Z,22.73
2018-09-01T04:23:26.664Z,22.73
2018-09-01T04:25:53.344Z,22.75
2018-09-01T04:28:20.128Z,22.72
2018-09-01T04:30:46.796Z,22.67
2018-09-01T04:33:13.488Z,22.68
2018-09-01T04:35:40.129Z,22.72
2018-09-01T04:38:07.741Z,22.75
2018-09-01T04:40:34.445Z,22.70
2018-09-01T04:43:01.248Z,22.70
2018-09-01T04:45:27.924Z,22.75
2018-09-01T04:47:55.777Z,22.72
2018-09-01T04:50:22.438Z,22.72
2018-09-01T04:52:49.460Z,22.72
2018-09-01T04:55:16.132Z,22.71
2018-09-01T04:57:42.784Z,22.72
2018-09-01T05:00:09.749Z,22.73
2018-09-01T05:02:36.398Z,22.71
2018-09-01T05:05:03.060Z,22.71
2018-09-01T05:07:29.741Z,22.70
2018-09-01T05:09:56.584Z,22.70
2018-09-01T05:12:23.263Z,22.73
2018-09-01T05:14:50.661Z,22.71
2018-09-01T05:17:17.332Z,22.74
2018-09-01T05:19:44.009Z,22.74
2018-09-01T05:22:10.863Z,22.71
2018-09-01T05:24:37.748Z,22.69
2018-09-01T05:27:04.472Z,22.71
2018-09-01T05:29:31.145Z,22.71
2018-09-01T05:31:57.801Z,22.70
2018-09-01T05:34:26.588Z,22.70
2018-09-01T05:36:55.385Z,22.72
2018-09-01T05:39:22.068Z,22.73
2018-09-01T05:41:50.153Z,22.74
2018-09-01T05:44:17.181Z,22.74
2018-09-01T05:46:44.957Z,22.74
2018-09-01T05:49:12.561Z,22.75
2018-09-01T05:51:39.349Z,22.75
2018-09-01T05:54:06.021Z,22.72
2018-09-01T05:56:32.701Z,22.75
2018-09-01T05:58:59.409Z,22.80
2018-09-01T06:01:26.316Z,22.78
2018-09-01T06:03:53.012Z,22.77
2018-09-01T06:06:21.296Z,22.77
2018-09-01T06:08:49.578Z,22.77
2018-09-01T06:11:17.224Z,22.75
2018-09-01T06:13:44.856Z,22.78
2018-09-01T06:16:12.488Z,22.81
2018-09-01T06:18:39.175Z,22.78
2018-09-01T06:21:05.868Z,22.77
2018-09-01T06:23:32.810Z,22.76
2018-09-01T06:25:59.529Z,22.74
2018-09-01T06:28:45.172Z,22.75
2018-09-01T06:31:12.845Z,22.73
2018-09-01T06:33:39.976Z,22.77
2018-09-01T06:36:07.751Z,22.80
2018-09-01T06:38:35.318Z,22.83
2018-09-01T06:41:01.969Z,22.83
2018-09-01T06:43:28.637Z,22.86
2018-09-01T06:45:55.381Z,22.85
2018-09-01T06:48:22.040Z,22.89
2018-09-01T06:50:49.832Z,22.92
2018-09-01T06:53:17.392Z,22.93
2018-09-01T06:55:44.148Z,22.91
2018-09-01T06:58:10.840Z,22.89
2018-09-01T07:00:38.453Z,22.94
2018-09-01T07:03:06.022Z,22.93
2018-09-01T07:05:33.629Z,22.93
2018-09-01T07:08:01.260Z,22.93
2018-09-01T07:10:27.908Z,22.95
2018-09-01T07:12:57.037Z,22.97
2018-09-01T07:15:25.676Z,22.96
2018-09-01T07:17:53.284Z,22.86
2018-09-01T07:20:30.686Z,22.76
2018-09-01T07:23:01.710Z,22.76
2018-09-01T07:25:31.686Z,22.82
2018-09-01T07:27:59.302Z,22.85
2018-09-01T07:30:26.967Z,22.76
2018-09-01T07:32:53.575Z,22.80
2018-09-01T07:35:21.176Z,22.77
2018-09-01T07:37:47.877Z,22.83
2018-09-01T07:40:14.544Z,22.89
2018-09-01T07:42:42.148Z,22.87
2018-09-01T07:45:08.845Z,22.90
2018-09-01T07:47:35.553Z,22.98
2018-09-01T07:50:02.291Z,23.00
2018-09-01T07:52:29.895Z,22.94
2018-09-01T07:54:57.614Z,23.00
2018-09-01T07:57:26.193Z,23.01
2018-09-01T07:59:53.624Z,23.04
2018-09-01T08:02:21.346Z,23.01
2018-09-01T08:04:49.936Z,23.04
2018-09-01T08:07:16.684Z,23.03
2018-09-01T08:09:44.165Z,23.02
2018-09-01T08:12:11.010Z,23.05
2018-09-01T08:14:37.922Z,23.09
2018-09-01T08:17:05.433Z,23.09
2018-09-01T08:19:32.958Z,23.12
2018-09-01T08:22:00.622Z,23.10
2018-09-01T08:24:27.320Z,23.10
2018-09-01T08:26:55.063Z,23.09
2018-09-01T08:29:22.818Z,23.07
2018-09-01T08:31:50.571Z,23.10
2018-09-01T08:34:17.281Z,23.10
2018-09-01T08:36:44.013Z,23.10
2018-09-01T08:39:10.873Z,23.12
2018-09-01T08:41:37.529Z,23.13
2018-09-01T08:44:05.176Z,23.13
2018-09-01T08:46:31.827Z,23.13
2018-09-01T08:48:59.329Z,23.12
2018-09-01T08:51:27.046Z,23.11
2018-09-01T08:53:55.453Z,23.08
2018-09-01T08:56:23.149Z,23.11
2018-09-01T08:58:50.841Z,23.12
2018-09-01T09:01:19.096Z,23.11
2018-09-01T09:03:45.860Z,23.14
2018-09-01T09:06:13.351Z,23.14
2018-09-01T09:08:40.025Z,23.16
2018-09-01T09:11:07.167Z,23.15
2018-09-01T09:13:34.632Z,23.17
2018-09-01T09:16:01.292Z,23.13
2018-09-01T09:18:28.832Z,23.18
2018-09-01T09:20:56.343Z,23.22
2018-09-01T09:23:23.033Z,23.21
2018-09-01T09:25:51.381Z,23.18
2018-09-01T09:28:18.076Z,23.18
2018-09-01T09:30:44.740Z,23.19
2018-09-01T09:33:13.293Z,23.18
2018-09-01T09:35:40.727Z,23.17
2018-09-01T09:38:07.406Z,23.18
2018-09-01T09:40:34.053Z,23.18
2018-09-01T09:43:07.254Z,23.19
2018-09-01T09:45:33.948Z,23.20
2018-09-01T09:48:01.572Z,23.19
2018-09-01T09:50:29.093Z,23.18
2018-09-01T09:52:57.705Z,23.20
2018-09-01T09:55:24.965Z,23.19
2018-09-01T09:57:51.621Z,23.17
2018-09-01T10:00:24.935Z,23.18
2018-09-01T10:02:52.373Z,23.11
2018-09-01T10:05:20.034Z,23.12
2018-09-01T10:07:47.650Z,23.12
2018-09-01T10:10:14.577Z,23.11
2018-09-01T10:12:41.224Z,23.11
2018-09-01T10:15:08.880Z,23.12
2018-09-01T10:17:36.541Z,23.12
2018-09-01T10:20:03.291Z,23.09
2018-09-01T10:22:30.740Z,23.11
2018-09-01T10:24:58.377Z,23.12
2018-09-01T10:27:26.077Z,23.09
2018-09-01T10:29:52.739Z,23.10
2018-09-01T10:32:20.605Z,23.11
2018-09-01T10:34:47.240Z,23.14
2018-09-01T10:37:14.020Z,23.21
2018-09-01T10:39:40.673Z,23.46
2018-09-01T10:42:08.249Z,23.42
2018-09-01T10:44:34.917Z,23.44
2018-09-01T10:47:01.608Z,23.47
2018-09-01T10:49:28.363Z,23.50
2018-09-01T10:51:55.529Z,23.54
2018-09-01T10:54:22.179Z,23.55
2018-09-01T10:56:51.142Z,23.55
2018-09-01T10:59:17.915Z,23.56
2018-09-01T11:01:44.537Z,23.57
2018-09-01T11:04:12.921Z,23.55
2018-09-01T11:06:39.718Z,23.54
2018-09-01T11:09:08.856Z,23.55
2018-09-01T11:11:35.501Z,23.54
2018-09-01T11:14:02.185Z,23.57
2018-09-01T11:16:28.886Z,23.56
2018-09-01T11:18:56.423Z,23.54
2018-09-01T11:21:24.053Z,23.51
2018-09-01T11:23:52.305Z,23.51
2018-09-01T11:26:21.176Z,23.52
2018-09-01T11:28:47.830Z,23.51
2018-09-01T11:31:15.499Z,23.50
2018-09-01T11:33:42.248Z,23.50
2018-09-01T11:36:08.926Z,23.51
2018-09-01T11:38:35.583Z,23.52
2018-09-01T11:41:02.341Z,23.52
2018-09-01T11:43:29.056Z,23.50
2018-09-01T11:45:56.401Z,23.49
2018-09-01T11:48:23.092Z,23.47
2018-09-01T11:50:50.811Z,23.49
2018-09-01T11:53:19.765Z,23.48
2018-09-01T11:55:46.296Z,23.48
2018-09-01T11:58:13.586Z,23.47
2018-09-01T12:00:40.234Z,23.47
2018-09-01T12:03:07.565Z,23.47
2018-09-01T12:05:34.261Z,23.50
2018-09-01T12:08:00.909Z,23.47
2018-09-01T12:10:27.668Z,23.48
2018-09-01T12:12:55.110Z,23.46
2018-09-01T12:15:21.745Z,23.49
2018-09-01T12:17:49.572Z,23.49
2018-09-01T12:20:17.096Z,23.47
2018-09-01T12:22:43.792Z,23.46
2018-09-01T12:25:11.364Z,23.46
2018-09-01T12:27:38.827Z,23.44
2018-09-01T12:30:05.481Z,23.45
2018-09-01T12:32:33.040Z,23.44
2018-09-01T12:34:59.796Z,23.46
2018-09-01T12:37:27.267Z,23.46
2018-09-01T12:39:53.921Z,23.45
2018-09-01T12:42:20.649Z,23.44
2018-09-01T12:44:47.285Z,23.43
2018-09-01T12:47:14.872Z,23.43
2018-09-01T12:49:42.432Z,23.43
2018-09-01T12:52:09.110Z,23.44
2018-09-01T12:54:35.756Z,23.43
2018-09-01T12:57:02.524Z,23.42
2018-09-01T12:59:29.340Z,23.42
2018-09-01T13:01:56.500Z,23.42
2018-09-01T13:04:23.160Z,23.41
2018-09-01T13:06:51.764Z,23.42
2018-09-01T13:09:19.936Z,23.41
2018-09-01T13:11:46.581Z,23.42
2018-09-01T13:14:14.112Z,23.42
2018-09-01T13:16:40.812Z,23.43
2018-09-01T13:19:07.577Z,23.44
2018-09-01T13:21:34.217Z,23.44
2018-09-01T13:24:01.793Z,23.44
2018-09-01T13:26:28.440Z,23.43
2018-09-01T13:28:55.143Z,23.43
2018-09-01T13:31:21.788Z,23.41
2018-09-01T13:33:49.504Z,23.42
2018-09-01T13:36:16.148Z,23.42
2018-09-01T13:38:42.858Z,23.42
2018-09-01T13:41:09.525Z,23.41
2018-09-01T13:43:36.181Z,23.41
2018-09-01T13:46:02.974Z,23.38
2018-09-01T13:48:29.702Z,23.39
2018-09-01T13:50:56.364Z,23.39
2018-09-01T13:53:27.582Z,23.43
2018-09-01T13:55:56.053Z,23.45
2018-09-01T13:58:23.648Z,23.44
2018-09-01T14:00:50.318Z,23.40
2018-09-01T14:03:17.007Z,23.43
2018-09-01T14:05:44.651Z,23.40
2018-09-01T14:08:11.280Z,23.41
2018-09-01T14:10:38.006Z,23.41
2018-09-01T14:13:05.656Z,23.40
2018-09-01T14:15:33.325Z,23.36
2018-09-01T14:18:00.936Z,23.46
2018-09-01T14:20:28.673Z,23.47
2018-09-01T14:22:56.301Z,23.50
2018-09-01T14:25:22.992Z,23.50
2018-09-01T14:27:50.616Z,23.52
2018-09-01T14:30:19.396Z,23.50
2018-09-01T14:32:46.058Z,23.46
2018-09-01T14:35:13.713Z,23.46
2018-09-01T14:37:40.520Z,23.44
2018-09-01T14:40:08.141Z,23.44
2018-09-01T14:42:34.800Z,23.41
2018-09-01T14:45:01.520Z,23.41
2018-09-01T14:47:28.982Z,23.39
2018-09-01T14:49:56.512Z,23.41
2018-09-01T14:52:23.188Z,23.40
2018-09-01T14:54:51.356Z,23.38
2018-09-01T14:57:20.421Z,23.38
2018-09-01T14:59:49.761Z,23.37
2018-09-01T15:02:16.624Z,23.37
2018-09-01T15:04:44.089Z,23.37
2018-09-01T15:07:11.763Z,23.42
2018-09-01T15:09:39.341Z,23.39
2018-09-01T15:12:07.070Z,23.37
2018-09-01T15:14:34.661Z,23.35
2018-09-01T15:17:01.353Z,23.33
2018-09-01T15:19:29.104Z,23.64
2018-09-01T15:21:56.799Z,23.80
2018-09-01T15:24:24.993Z,23.82
2018-09-01T15:26:52.440Z,23.67
2018-09-01T15:29:20.140Z,23.63
2018-09-01T15:31:47.628Z,23.57
2018-09-01T15:34:14.305Z,23.58
2018-09-01T15:36:41.948Z,23.59
2018-09-01T15:39:08.586Z,23.59
2018-09-01T15:41:35.231Z,23.58
2018-09-01T15:44:02.633Z,23.59
2018-09-01T15:46:29.376Z,23.57
2018-09-01T15:48:56.112Z,23.57
2018-09-01T15:51:23.725Z,23.57
2018-09-01T15:53:51.498Z,23.56
2018-09-01T15:56:19.441Z,23.53
2018-09-01T15:58:46.073Z,23.52
2018-09-01T16:01:12.713Z,23.52
2018-09-01T16:03:40.233Z,23.51
2018-09-01T16:06:10.129Z,23.50
2018-09-01T16:08:37.549Z,23.49
2018-09-01T16:11:04.406Z,23.49
2018-09-01T16:13:31.068Z,23.48
2018-09-01T16:15:57.717Z,23.46
2018-09-01T16:18:25.298Z,23.45
2018-09-01T16:20:51.924Z,23.44
2018-09-01T16:23:19.723Z,23.42
2018-09-01T16:25:46.438Z,23.41
2018-09-01T16:28:13.180Z,23.42
2018-09-01T16:30:39.824Z,23.42
2018-09-01T16:33:06.573Z,23.41
2018-09-01T16:35:33.190Z,23.42
2018-09-01T16:37:59.831Z,23.39
2018-09-01T16:40:26.501Z,23.39
2018-09-01T16:42:53.172Z,23.39
2018-09-01T16:45:21.002Z,23.36
2018-09-01T16:47:47.760Z,23.38
2018-09-01T16:50:15.348Z,23.38
2018-09-01T16:52:42.987Z,23.38
2018-09-01T16:55:10.607Z,23.36
2018-09-01T16:57:38.309Z,23.36
2018-09-01T17:00:06.070Z,23.34
2018-09-01T17:02:32.700Z,23.34
2018-09-01T17:05:00.444Z,23.35
2018-09-01T17:07:29.255Z,23.34
2018-09-01T17:09:56.737Z,23.34
2018-09-01T17:12:24.276Z,23.33
2018-09-01T17:14:51.668Z,23.31
2018-09-01T17:17:20.901Z,23.29
2018-09-01T17:19:49.790Z,23.26
2018-09-01T17:22:16.425Z,23.26
2018-09-01T17:24:43.153Z,23.27
2018-09-01T17:27:09.921Z,23.28
2018-09-01T17:29:36.608Z,23.29
2018-09-01T17:32:04.210Z,23.28
2018-09-01T17:34:30.900Z,23.26
2018-09-01T17:36:58.349Z,23.28
2018-09-01T17:39:26.119Z,23.28
2018-09-01T17:41:52.761Z,23.26
2018-09-01T17:44:20.244Z,23.27
2018-09-01T17:46:47.839Z,23.25
2018-09-01T17:49:14.536Z,23.26
2018-09-01T17:51:41.172Z,23.26
2018-09-01T17:54:07.800Z,23.23
2018-09-01T17:56:35.504Z,23.23
2018-09-01T17:59:02.114Z,23.22
2018-09-01T18:01:29.401Z,23.23
2018-09-01T18:03:57.486Z,23.23
2018-09-01T18:06:26.101Z,23.20
2018-09-01T18:08:52.817Z,23.19
2018-09-01T18:11:20.419Z,23.19
2018-09-01T18:13:47.357Z,23.21
2018-09-01T18:16:14.096Z,23.25
2018-09-01T18:18:41.604Z,23.27
2018-09-01T18:21:08.276Z,23.34
2018-09-01T18:23:34.917Z,23.37
2018-09-01T18:26:02.923Z,23.43
2018-09-01T18:28:29.947Z,23.48
2018-09-01T18:30:57.479Z,23.52
2018-09-01T18:33:24.117Z,23.57
2018-09-01T18:35:51.667Z,23.58
2018-09-01T18:38:19.440Z,23.61
2018-09-01T18:40:47.001Z,23.66
2018-09-01T18:43:14.333Z,23.65
2018-09-01T18:45:44.694Z,23.63
2018-09-01T18:48:11.521Z,23.61
2018-09-01T18:50:38.222Z,23.61
2018-09-01T18:53:06.216Z,23.58
2018-09-01T18:55:32.875Z,23.58
2018-09-01T18:58:00.372Z,23.53
2018-09-01T19:00:28.004Z,23.58
2018-09-01T19:02:56.251Z,23.55
2018-09-01T19:05:23.850Z,23.54
2018-09-01T19:07:51.444Z,23.55
2018-09-01T19:10:18.197Z,23.51
2018-09-01T19:12:45.908Z,23.55
2018-09-01T19:15:12.696Z,23.52
2018-09-01T19:17:39.346Z,23.52
2018-09-01T19:20:06.025Z,23.54
2018-09-01T19:22:32.658Z,23.52
2018-09-01T19:24:59.353Z,23.53
2018-09-01T19:27:27.640Z,23.54
2018-09-01T19:29:55.880Z,23.50
2018-09-01T19:32:22.520Z,23.49
2018-09-01T19:34:50.421Z,23.47
2018-09-01T19:37:17.104Z,23.46
2018-09-01T19:39:43.752Z,23.47
2018-09-01T19:42:10.526Z,23.47
2018-09-01T19:44:37.237Z,23.47
2018-09-01T19:47:04.096Z,23.46
2018-09-01T19:49:30.812Z,23.45
2018-09-01T19:51:57.458Z,23.43
2018-09-01T19:54:24.165Z,23.43
2018-09-01T19:56:50.800Z,23.45
2018-09-01T19:59:17.495Z,23.44
2018-09-01T20:01:44.188Z,23.42
2018-09-01T20:04:10.829Z,23.43
2018-09-01T20:06:37.473Z,23.42
2018-09-01T20:09:04.901Z,23.42
2018-09-01T20:11:31.545Z,23.42
2018-09-01T20:13:58.271Z,23.41
2018-09-01T20:16:25.799Z,23.39
2018-09-01T20:18:52.499Z,23.39
2018-09-01T20:21:19.476Z,23.37
2018-09-01T20:23:46.253Z,23.38
2018-09-01T20:26:12.921Z,23.39
2018-09-01T20:28:39.597Z,23.39
2018-09-01T20:31:06.373Z,23.38
2018-09-01T20:33:33.087Z,23.36
2018-09-01T20:35:59.759Z,23.36
2018-09-01T20:38:27.900Z,23.38
2018-09-01T20:40:55.996Z,23.38
2018-09-01T20:43:25.763Z,23.36
2018-09-01T20:45:52.583Z,23.32
2018-09-01T20:48:20.188Z,23.31
2018-09-01T20:50:51.732Z,23.33
2018-09-01T20:53:19.937Z,23.31
2018-09-01T20:55:48.113Z,23.31
2018-09-01T20:58:14.937Z,23.29
2018-09-01T21:00:41.592Z,23.30
2018-09-01T21:03:09.028Z,23.31
2018-09-01T21:05:35.779Z,23.29
2018-09-01T21:08:05.986Z,23.30
2018-09-01T21:10:32.673Z,23.27
2018-09-01T21:12:59.380Z,23.25
2018-09-01T21:15:26.114Z,23.25
2018-09-01T21:17:53.764Z,23.28
2018-09-01T21:20:20.444Z,23.29
2018-09-01T21:22:47.168Z,23.29
2018-09-01T21:25:13.832Z,23.28
2018-09-01T21:27:40.487Z,23.25
2018-09-01T21:30:07.256Z,23.26
2018-09-01T21:32:34.065Z,23.27
2018-09-01T21:35:01.753Z,23.24
2018-09-01T21:37:28.425Z,23.21
2018-09-01T21:39:56.064Z,23.23
2018-09-01T21:42:23.566Z,23.21
2018-09-01T21:44:51.041Z,23.20
2018-09-01T21:47:19.812Z,23.22
2018-09-01T21:49:47.441Z,23.18
2018-09-01T21:52:15.154Z,23.17
2018-09-01T21:54:41.808Z,23.15
2018-09-01T21:57:08.686Z,23.16
2018-09-01T21:59:35.417Z,23.18
2018-09-01T22:02:07.842Z,23.17
2018-09-01T22:04:40.962Z,23.14
2018-09-01T22:07:08.600Z,23.11
2018-09-01T22:09:35.313Z,23.17
2018-09-01T22:12:02.025Z,23.19
2018-09-01T22:14:28.761Z,23.18
2018-09-01T22:16:56.611Z,23.18
2018-09-01T22:19:23.268Z,23.16
2018-09-01T22:21:50.992Z,23.16
2018-09-01T22:24:19.433Z,23.15
2018-09-01T22:26:46.088Z,23.17
2018-09-01T22:29:12.743Z,23.19
2018-09-01T22:31:39.381Z,23.16
2018-09-01T22:34:06.022Z,23.15
2018-09-01T22:36:33.572Z,23.15
2018-09-01T22:39:01.196Z,23.15
2018-09-01T22:41:28.665Z,23.14
2018-09-01T22:43:56.573Z,23.17
2018-09-01T22:46:23.241Z,23.18
2018-09-01T22:48:50.738Z,23.19
2018-09-01T22:51:17.368Z,23.19
2018-09-01T22:53:44.149Z,23.18
2018-09-01T22:56:10.799Z,23.18
2018-09-01T22:58:37.462Z,23.15
2018-09-01T23:01:04.247Z,23.16
2018-09-01T23:03:30.904Z,23.13
2018-09-01T23:05:58.477Z,23.14
2018-09-01T23:08:26.048Z,23.11
2018-09-01T23:10:52.720Z,23.13
2018-09-01T23:13:20.809Z,23.13
2018-09-01T23:15:48.174Z,23.13
2018-09-01T23:18:14.824Z,23.11
2018-09-01T23:20:41.533Z,23.13
2018-09-01T23:23:08.481Z,23.15
2018-09-01T23:25:36.121Z,23.13
2018-09-01T23:28:02.813Z,23.10
2018-09-01T23:30:30.541Z,23.12
2018-09-01T23:32:58.064Z,23.10
2018-09-01T23:35:25.828Z,23.12
2018-09-01T23:37:53.525Z,23.10
2018-09-01T23:40:20.179Z,23.10
2018-09-01T23:42:47.848Z,23.10
2018-09-01T23:45:14.541Z,23.12
2018-09-01T23:47:41.182Z,23.13
2018-09-01T23:50:08.760Z,23.10
2018-09-01T23:52:35.412Z,23.11
2018-09-01T23:55:02.153Z,23.09
2018-09-01T23:57:29.824Z,23.04
2018-09-01T23:59:57.534Z,23.01
